Time;durP1;ratioP1;P1;durP2;ratioP2;P2;SDS_P1;SDS_P2;PMS_P1;PMS_P2;Temp;Humidity;BMP_temperature;BMP_pressure;BME280_temperature;BME280_humidity;BME280_pressure;Samples;Min_cycle;Max_cycle;Signal;HPM_P1;HPM_P2
2023/10/09 00:03:01;;;;;;;24.90;6.97;;;12.10;99.90;;;;;;5032372;28;20026;-84
2023/10/09 00:08:21;;;;;;;26.65;7.38;;;12.10;99.90;;;;;;5047009;28;20022;-83
2023/10/09 00:10:54;;;;;;;21.90;6.70;;;12.00;99.90;;;;;;5032203;28;20044;-84
2023/10/09 00:13:27;;;;;;;33.08;7.30;;;12.00;99.90;;;;;;5016040;28;20040;-83
2023/10/09 00:15:57;;;;;;;26.38;6.93;;;12.10;99.90;;;;;;5049155;28;20025;-84
2023/10/09 00:18:29;;;;;;;28.27;6.90;;;12.10;99.90;;;;;;5029113;28;20441;-83
2023/10/09 00:21:00;;;;;;;22.30;6.68;;;12.20;99.90;;;;;;5033006;28;20108;-83
2023/10/09 00:23:27;;;;;;;;;;;12.10;99.90;;;;;;5033399;28;20044;-83
2023/10/09 00:26:08;;;;;;;24.42;6.30;;;12.10;99.90;;;;;;5032349;28;20559;-84
2023/10/09 00:28:41;;;;;;;25.40;7.65;;;12.00;99.90;;;;;;5016344;28;20600;-84
2023/10/09 00:31:07;;;;;;;26.67;7.13;;;11.90;99.90;;;;;;5032715;28;20041;-84
2023/10/09 00:33:34;;;;;;;22.95;6.63;;;11.90;99.90;;;;;;5016100;28;20180;-84
2023/10/09 00:36:18;;;;;;;21.10;7.03;;;11.90;99.90;;;;;;5016283;28;20044;-83
2023/10/09 00:38:49;;;;;;;27.45;7.20;;;12.10;99.90;;;;;;5027025;28;20029;-84
2023/10/09 00:41:24;;;;;;;17.17;6.68;;;12.20;99.90;;;;;;5015879;28;20044;-83
2023/10/09 00:43:52;;;;;;;22.38;7.50;;;12.20;99.90;;;;;;5032190;28;20115;-84
2023/10/09 00:49:15;;;;;;;27.00;7.25;;;12.40;99.90;;;;;;5032424;28;20029;-84
2023/10/09 00:51:56;;;;;;;17.95;6.65;;;12.60;99.90;;;;;;5025406;28;20040;-84
2023/10/09 00:54:51;;;;;;;21.23;6.45;;;12.70;99.90;;;;;;5032205;28;20091;-84
2023/10/09 00:57:24;;;;;;;24.23;7.65;;;12.80;99.90;;;;;;5032021;28;20400;-84
2023/10/09 00:59:59;;;;;;;32.72;7.13;;;12.90;99.90;;;;;;5033006;28;20111;-84
2023/10/09 01:02:35;;;;;;;18.05;5.68;;;13.10;99.90;;;;;;5014046;28;20025;-81
2023/10/09 01:05:11;;;;;;;24.08;7.45;;;13.20;99.90;;;;;;5030925;28;20480;-83
2023/10/09 01:07:44;;;;;;;13.80;5.95;;;13.30;99.90;;;;;;5015270;28;20070;-83
2023/10/09 01:10:11;;;;;;;18.35;6.22;;;13.40;99.90;;;;;;5015359;28;20029;-83
2023/10/09 01:12:43;;;;;;;20.67;5.47;;;13.40;99.90;;;;;;5031603;28;20477;-84
2023/10/09 01:15:17;;;;;;;19.85;6.43;;;13.40;99.90;;;;;;5048410;28;20029;-83
2023/10/09 01:17:45;;;;;;;26.08;6.78;;;13.50;99.90;;;;;;5031651;28;20120;-83
2023/10/09 01:20:22;;;;;;;26.52;5.90;;;13.50;99.90;;;;;;5031471;28;20037;-84
2023/10/09 01:22:50;;;;;;;18.33;5.25;;;13.80;99.90;;;;;;5014993;28;20079;-84
2023/10/09 01:25:16;;;;;;;13.52;5.18;;;14.20;99.90;;;;;;5015222;28;20120;-84
2023/10/09 01:27:43;;;;;;;21.90;5.38;;;14.60;99.90;;;;;;5015434;28;20483;-84
2023/10/09 01:30:13;;;;;;;23.02;5.75;;;14.70;99.90;;;;;;5008889;28;20087;-84
2023/10/09 01:32:40;;;;;;;22.60;5.45;;;14.90;99.90;;;;;;5013408;28;20025;-85
2023/10/09 01:35:19;;;;;;;33.47;6.32;;;15.10;99.90;;;;;;5030753;28;20022;-84
2023/10/09 01:37:49;;;;;;;19.83;5.00;;;15.30;99.90;;;;;;5014026;28;20087;-84
2023/10/09 01:40:35;;;;;;;17.85;4.82;;;15.40;99.90;;;;;;5014099;28;20032;-84
2023/10/09 01:43:03;;;;;;;15.20;5.43;;;15.50;99.90;;;;;;5013795;28;20033;-84
2023/10/09 01:45:29;;;;;;;20.05;5.43;;;15.60;99.90;;;;;;5030506;28;20043;-84
2023/10/09 01:47:55;;;;;;;13.63;5.07;;;15.60;99.90;;;;;;5030322;28;20092;-84
2023/10/09 01:50:31;;;;;;;17.10;5.28;;;15.60;99.90;;;;;;5047431;28;20052;-85
2023/10/09 01:53:00;;;;;;;15.23;5.38;;;15.60;99.90;;;;;;5014073;28;20025;-84
2023/10/09 01:55:33;;;;;;;25.98;4.30;;;15.70;99.90;;;;;;5030759;28;20037;-84
2023/10/09 01:58:02;;;;;;;11.32;4.90;;;15.60;99.90;;;;;;5014036;28;20100;-84
2023/10/09 02:00:29;;;;;;;21.15;4.82;;;15.50;99.90;;;;;;5030781;28;20057;-84
2023/10/09 02:02:56;;;;;;;13.93;4.63;;;15.30;99.90;;;;;;5014529;28;20472;-84
2023/10/09 02:07:53;;;;;;;15.50;5.18;;;15.10;99.90;;;;;;5030648;28;20029;-84
2023/10/09 02:12:57;;;;;;;32.85;5.20;;;14.70;99.90;;;;;;5049508;28;20030;-84
2023/10/09 02:18:53;;;;;;;16.42;5.25;;;14.40;99.90;;;;;;5034843;28;20057;-84
2023/10/09 02:21:39;;;;;;;16.50;5.15;;;14.30;99.90;;;;;;5040258;28;20044;-84
2023/10/09 02:24:41;;;;;;;15.30;5.35;;;14.10;99.90;;;;;;5013642;28;20041;-84
2023/10/09 02:27:06;;;;;;;18.23;5.28;;;14.10;99.90;;;;;;5032785;28;20025;-83
2023/10/09 02:29:35;;;;;;;17.63;5.82;;;14.00;99.90;;;;;;5033538;28;20029;-84
2023/10/09 02:32:13;;;;;;;14.18;5.47;;;13.90;99.90;;;;;;5050873;28;20565;-84
2023/10/09 02:34:39;;;;;;;18.83;6.03;;;13.90;99.90;;;;;;5024190;28;20026;-84
2023/10/09 02:37:06;;;;;;;22.60;6.47;;;13.90;99.90;;;;;;5034821;28;20480;-84
2023/10/09 02:39:43;;;;;;;19.27;5.15;;;13.90;99.90;;;;;;5018256;28;20071;-84
2023/10/09 02:44:46;;;;;;;14.43;6.07;;;14.00;99.90;;;;;;5034052;28;20040;-84
2023/10/09 02:47:20;;;;;;;21.70;6.10;;;14.00;99.90;;;;;;5034041;28;20026;-83
2023/10/09 02:49:48;;;;;;;15.00;5.90;;;14.00;99.90;;;;;;5017450;28;20522;-84
2023/10/09 02:52:40;;;;;;;16.30;5.88;;;14.00;99.90;;;;;;5050969;28;20399;-83
2023/10/09 02:55:12;;;;;;;18.55;5.65;;;14.00;99.90;;;;;;5030527;28;20040;-84
2023/10/09 02:57:41;;;;;;;18.98;5.90;;;14.00;99.90;;;;;;5034259;28;20036;-84
2023/10/09 03:00:18;;;;;;;21.70;6.72;;;13.90;99.90;;;;;;5034420;28;20503;-84
2023/10/09 03:02:46;;;;;;;16.88;5.97;;;13.90;99.90;;;;;;5035056;28;20091;-84
2023/10/09 03:05:12;;;;;;;25.65;6.28;;;13.80;99.90;;;;;;5017466;28;20025;-84
2023/10/09 03:07:39;;;;;;;15.23;5.97;;;13.70;99.90;;;;;;5017557;28;20785;-83
2023/10/09 03:10:09;;;;;;;25.98;6.75;;;13.70;99.90;;;;;;5016986;28;20610;-84
2023/10/09 03:12:39;;;;;;;19.33;6.13;;;13.60;99.90;;;;;;5017240;28;20478;-84
2023/10/09 03:15:08;;;;;;;19.73;5.80;;;13.40;99.90;;;;;;5033908;28;20033;-84
2023/10/09 03:17:34;;;;;;;19.85;5.40;;;13.30;99.90;;;;;;5033172;28;20396;-84
2023/10/09 03:20:12;;;;;;;19.73;6.50;;;13.20;99.90;;;;;;5017500;28;20041;-84
2023/10/09 03:22:39;;;;;;;18.83;5.75;;;13.20;99.90;;;;;;5032869;28;20037;-84
2023/10/09 03:25:11;;;;;;;15.43;5.28;;;13.20;99.90;;;;;;5015703;28;20064;-84
2023/10/09 03:27:47;;;;;;;16.50;5.82;;;13.20;99.90;;;;;;5050135;28;20076;-84
2023/10/09 03:30:23;;;;;;;24.40;7.22;;;13.20;99.90;;;;;;5017509;28;20032;-84
2023/10/09 03:32:53;;;;;;;23.90;5.78;;;13.40;99.90;;;;;;5050120;28;20029;-84
2023/10/09 03:35:34;;;;;;;26.27;8.45;;;13.50;99.90;;;;;;5050787;28;20484;-84
2023/10/09 03:38:02;;;;;;;20.37;6.23;;;13.60;99.90;;;;;;5050151;28;20480;-84
2023/10/09 03:40:28;;;;;;;15.65;7.15;;;13.50;99.90;;;;;;5033315;28;20021;-84
2023/10/09 03:42:54;;;;;;;22.63;7.07;;;13.50;99.90;;;;;;5033421;28;20105;-84
2023/10/09 03:45:27;;;;;;;17.05;6.47;;;13.40;99.90;;;;;;5049978;28;20510;-84
2023/10/09 03:48:08;;;;;;;18.25;5.90;;;13.30;99.90;;;;;;5032213;28;20759;-83
2023/10/09 03:50:37;;;;;;;18.17;5.47;;;13.30;99.90;;;;;;5048864;28;20031;-83
2023/10/09 03:53:07;;;;;;;29.25;6.93;;;13.10;99.90;;;;;;5015292;28;20064;-84
2023/10/09 03:55:35;;;;;;;17.77;7.03;;;13.00;99.90;;;;;;5030279;28;20038;-84
2023/10/09 03:58:01;;;;;;;19.67;6.18;;;12.90;99.90;;;;;;5048970;28;20037;-84
2023/10/09 04:00:49;;;;;;;18.00;6.20;;;12.80;99.90;;;;;;5015479;28;20037;-84
2023/10/09 04:03:15;;;;;;;18.17;6.28;;;12.70;99.90;;;;;;5028344;28;20044;-83
2023/10/09 04:05:42;;;;;;;19.48;5.90;;;12.60;99.90;;;;;;5032774;28;20056;-84
2023/10/09 04:08:16;;;;;;;18.35;6.05;;;12.60;99.90;;;;;;5034361;28;20034;-83
2023/10/09 04:10:51;;;;;;;15.48;6.10;;;12.50;99.90;;;;;;5031964;28;20087;-84
2023/10/09 04:13:22;;;;;;;21.20;6.78;;;12.60;99.90;;;;;;5015700;28;20026;-83
2023/10/09 04:15:53;;;;;;;19.95;7.13;;;12.60;99.90;;;;;;5032753;28;20104;-84
2023/10/09 04:18:59;;;;;;;15.30;5.63;;;12.60;99.90;;;;;;5032070;28;20061;-83
2023/10/09 04:21:36;;;;;;;18.65;5.75;;;12.70;99.90;;;;;;5029275;28;20476;-83
2023/10/09 04:26:44;;;;;;;21.40;6.03;;;12.90;99.90;;;;;;5048706;28;20036;-84
2023/10/09 04:29:18;;;;;;;22.63;5.88;;;12.90;99.90;;;;;;5049046;28;20480;-83
2023/10/09 04:31:51;;;;;;;14.45;5.68;;;13.00;99.90;;;;;;5048456;28;20477;-84
2023/10/09 04:34:22;;;;;;;14.75;5.93;;;13.00;99.90;;;;;;5015503;28;20394;-84
2023/10/09 04:36:56;;;;;;;24.88;6.63;;;13.00;99.90;;;;;;5031966;28;20034;-83
2023/10/09 04:47:38;;;;;;;19.05;5.82;;;12.50;99.90;;;;;;5032597;28;20033;-83
2023/10/09 04:50:08;;;;;;;20.65;6.18;;;12.50;99.90;;;;;;5025314;28;20432;-83
2023/10/09 05:02:58;;;;;;;20.40;6.88;;;12.30;99.90;;;;;;5032051;28;20035;-84
2023/10/09 05:08:21;;;;;;;18.88;5.97;;;12.30;99.90;;;;;;5025896;28;20037;-84
2023/10/09 05:16:22;;;;;;;22.85;6.22;;;12.40;99.90;;;;;;5041556;28;20179;-83
2023/10/09 05:19:08;;;;;;;19.45;5.90;;;12.50;99.90;;;;;;5031044;28;20151;-84
2023/10/09 05:37:33;;;;;;;20.23;5.35;;;13.30;99.90;;;;;;5039381;28;20041;-84
2023/10/09 05:42:43;;;;;;;15.60;5.35;;;13.70;99.90;;;;;;5042484;28;20079;-83
2023/10/09 05:48:06;;;;;;;22.17;5.57;;;14.10;99.90;;;;;;5025094;28;20037;-84
2023/10/09 05:50:36;;;;;;;27.80;5.63;;;14.10;99.90;;;;;;5028202;28;20044;-83
2023/10/09 06:03:48;;;;;;;24.80;5.57;;;14.10;99.90;;;;;;5041661;28;20507;-83
2023/10/09 06:06:32;;;;;;;;;;;14.10;99.90;;;;;;5028108;28;20480;-83
2023/10/09 06:11:49;;;;;;;;;;;14.30;99.90;;;;;;5030244;28;20036;-83
2023/10/09 06:14:25;;;;;;;16.23;5.47;;;14.30;99.90;;;;;;5020234;28;20360;-83
2023/10/09 06:19:27;;;;;;;18.15;5.53;;;14.50;99.90;;;;;;5034010;28;20021;-83
2023/10/09 06:24:41;;;;;;;15.57;5.93;;;14.50;99.90;;;;;;5038081;28;20033;-83
2023/10/09 06:27:14;;;;;;;14.13;5.43;;;14.50;99.90;;;;;;5010158;28;20156;-83
2023/10/09 06:34:51;;;;;;;19.25;4.97;;;14.60;99.90;;;;;;5040767;28;20151;-83
2023/10/09 06:39:50;;;;;;;27.45;5.75;;;14.70;99.90;;;;;;5040653;28;20098;-83
2023/10/09 06:42:34;;;;;;;16.95;5.70;;;14.70;99.90;;;;;;5027991;28;20029;-83
2023/10/09 06:45:07;;;;;;;19.05;5.18;;;14.70;99.90;;;;;;5008759;28;20180;-83
2023/10/09 06:47:41;;;;;;;18.55;5.35;;;14.70;99.90;;;;;;5029651;28;20037;-82
2023/10/09 06:56:01;;;;;;;21.40;5.82;;;14.60;99.90;;;;;;5038243;28;20082;-83
2023/10/09 06:58:27;;;;;;;22.83;6.32;;;14.60;99.90;;;;;;5026039;28;20479;-83
2023/10/09 07:03:51;;;;;;;16.25;5.57;;;14.60;99.90;;;;;;5043490;28;20041;-82
2023/10/09 07:06:24;;;;;;;20.85;5.55;;;14.70;99.90;;;;;;5039655;28;20032;-83
2023/10/09 07:24:57;;;;;;;18.58;5.82;;;15.20;99.90;;;;;;5044909;28;20099;-83
2023/10/09 07:38:19;;;;;;;16.50;5.03;;;15.50;99.90;;;;;;5041359;28;20033;-83
2023/10/09 07:43:39;;;;;;;16.20;4.57;;;15.60;99.90;;;;;;5036929;28;20097;-83
2023/10/09 07:48:57;;;;;;;21.80;5.45;;;15.60;99.90;;;;;;5027836;28;20404;-83
2023/10/09 07:51:30;;;;;;;28.50;5.53;;;15.60;99.90;;;;;;5027232;28;20044;-83
2023/10/09 07:53:57;;;;;;;25.92;5.60;;;15.60;99.90;;;;;;5033593;28;20029;-83
2023/10/09 07:56:30;;;;;;;21.25;6.47;;;15.60;99.90;;;;;;5025133;28;20064;-83
2023/10/09 07:59:00;;;;;;;28.58;6.00;;;15.70;99.90;;;;;;5032674;28;20499;-83
2023/10/09 08:01:59;;;;;;;17.92;5.70;;;15.70;99.90;;;;;;5009913;28;20120;-83
2023/10/09 08:04:38;;;;;;;22.70;5.85;;;15.80;99.90;;;;;;5033693;28;20033;-83
2023/10/09 08:07:19;;;;;;;24.13;5.32;;;15.80;99.90;;;;;;5031473;28;20091;-83
2023/10/09 08:09:48;;;;;;;;;;;15.90;99.90;;;;;;5026709;28;20089;-83
2023/10/09 08:12:39;;;;;;;30.05;5.72;;;15.80;99.90;;;;;;5023317;28;20373;-82
2023/10/09 08:15:20;;;;;;;23.67;5.32;;;15.90;99.90;;;;;;5033281;28;20042;-83
2023/10/09 08:26:13;;;;;;;18.85;5.60;;;16.00;99.90;;;;;;5048252;28;20116;-83
2023/10/09 08:28:44;;;;;;;26.60;5.40;;;16.00;99.90;;;;;;5031626;28;20036;-83
2023/10/09 08:31:45;;;;;;;17.52;4.85;;;16.10;99.90;;;;;;5031678;28;20388;-82
2023/10/09 08:34:35;;;;;;;28.17;5.97;;;16.10;99.90;;;;;;5032377;28;20041;-83
2023/10/09 08:37:01;;;;;;;22.00;5.47;;;16.10;99.90;;;;;;5020219;28;20037;-84
2023/10/09 08:39:27;;;;;;;24.50;5.43;;;16.30;99.90;;;;;;5031656;28;20029;-83
2023/10/09 08:42:01;;;;;;;26.10;5.57;;;16.30;99.90;;;;;;5047737;28;20538;-83
2023/10/09 08:44:27;;;;;;;31.38;6.97;;;16.30;99.90;;;;;;5031888;28;20048;-83
2023/10/09 08:46:57;;;;;;;27.58;6.32;;;16.30;99.90;;;;;;5031780;28;20057;-83
2023/10/09 08:49:23;;;;;;;23.30;5.65;;;16.40;99.90;;;;;;5048806;28;20040;-83
2023/10/09 08:51:52;;;;;;;29.20;6.47;;;16.50;99.90;;;;;;5031873;28;20017;-83
2023/10/09 08:54:18;;;;;;;16.83;5.43;;;16.40;99.90;;;;;;5015799;28;20026;-83
2023/10/09 08:56:51;;;;;;;24.67;6.43;;;16.50;99.90;;;;;;5031731;28;20076;-83
2023/10/09 08:59:19;;;;;;;33.38;5.68;;;16.60;99.90;;;;;;5015151;28;20044;-83
2023/10/09 09:01:49;;;;;;;25.80;5.90;;;16.80;99.90;;;;;;5048150;28;20033;-83
2023/10/09 09:04:40;;;;;;;23.27;5.90;;;16.90;99.90;;;;;;5032334;28;20033;-83
2023/10/09 09:07:06;;;;;;;;;;;17.10;99.90;;;;;;5016044;28;20366;-83
2023/10/09 09:09:34;;;;;;;25.17;5.10;;;17.20;99.90;;;;;;5050382;28;20007;-83
2023/10/09 09:12:00;;;;;;;13.10;4.68;;;17.20;99.90;;;;;;5033580;28;20017;-83
2023/10/09 09:14:39;;;;;;;30.13;5.55;;;17.30;99.90;;;;;;5031506;28;20033;-83
2023/10/09 09:17:10;;;;;;;19.92;5.93;;;17.30;99.90;;;;;;5014779;28;20064;-83
2023/10/09 09:19:38;;;;;;;20.27;6.00;;;17.30;99.90;;;;;;5015473;28;20112;-83
2023/10/09 09:22:12;;;;;;;23.52;6.03;;;17.30;99.90;;;;;;5014123;28;20034;-83
2023/10/09 09:24:39;;;;;;;25.90;5.63;;;17.40;99.90;;;;;;5014700;28;20060;-83
2023/10/09 09:27:20;;;;;;;27.90;5.78;;;17.70;99.90;;;;;;5047446;28;20408;-84
2023/10/09 09:29:53;;;;;;;19.50;6.15;;;17.70;99.90;;;;;;5014941;28;20112;-83
2023/10/09 09:32:35;;;;;;;26.38;5.75;;;17.80;99.90;;;;;;5026454;28;20022;-84
2023/10/09 09:35:04;;;;;;;22.75;5.05;;;17.80;99.90;;;;;;5013704;28;20038;-83
2023/10/09 09:37:33;;;;;;;30.42;6.68;;;18.00;99.90;;;;;;5026349;28;20080;-84
2023/10/09 09:40:14;;;;;;;19.77;6.28;;;17.90;99.90;;;;;;5035106;28;20029;-84
2023/10/09 09:42:48;;;;;;;27.30;5.60;;;17.80;99.90;;;;;;5029552;28;20475;-84
2023/10/09 09:45:14;;;;;;;27.40;6.60;;;17.70;99.90;;;;;;5027918;28;20065;-83
2023/10/09 09:47:47;;;;;;;22.02;5.50;;;17.60;99.90;;;;;;5015867;28;20028;-84
2023/10/09 09:50:22;;;;;;;23.35;5.13;;;17.70;99.90;;;;;;5033953;28;20096;-84
2023/10/09 09:52:53;;;;;;;28.85;6.20;;;17.70;99.90;;;;;;5029015;28;20037;-84
2023/10/09 09:55:22;;;;;;;19.88;5.43;;;17.70;99.90;;;;;;5026078;28;20031;-84
2023/10/09 09:57:52;;;;;;;21.58;5.85;;;17.60;99.90;;;;;;5038206;28;20028;-84
2023/10/09 10:00:29;;;;;;;23.88;6.50;;;17.60;99.90;;;;;;5041284;28;20025;-83
2023/10/09 10:03:05;;;;;;;20.10;5.13;;;17.60;99.90;;;;;;5029427;28;20022;-83
2023/10/09 10:05:33;;;;;;;18.02;5.47;;;17.30;99.90;;;;;;5024360;28;20389;-84
2023/10/09 10:08:00;;;;;;;21.05;5.88;;;17.30;99.90;;;;;;5024453;28;20033;-84
2023/10/09 10:10:47;;;;;;;22.40;5.15;;;17.30;99.90;;;;;;5040034;28;20025;-84
2023/10/09 10:13:18;;;;;;;22.80;5.85;;;17.50;99.90;;;;;;5039410;28;20029;-84
2023/10/09 10:16:00;;;;;;;33.38;6.55;;;17.50;99.90;;;;;;5024386;28;20519;-84
2023/10/09 10:18:53;;;;;;;28.83;5.32;;;17.50;99.90;;;;;;5029677;28;20028;-84
2023/10/09 10:21:33;;;;;;;28.92;6.03;;;17.60;99.90;;;;;;5022699;28;20475;-84
2023/10/09 10:24:12;;;;;;;34.20;6.35;;;17.60;99.90;;;;;;5026747;28;20538;-84
2023/10/09 10:26:37;;;;;;;26.20;5.10;;;17.40;99.90;;;;;;5036109;28;20025;-84
2023/10/09 10:29:33;;;;;;;30.10;6.40;;;17.30;99.90;;;;;;5027673;28;20431;-83
2023/10/09 10:32:06;;;;;;;21.98;5.55;;;17.30;99.90;;;;;;5029683;28;20603;-84
2023/10/09 10:34:56;;;;;;;23.73;6.15;;;17.40;99.90;;;;;;5032932;28;20037;-83
2023/10/09 10:38:00;;;;;;;20.63;5.32;;;17.30;99.90;;;;;;5017833;28;20040;-84
2023/10/09 10:40:38;;;;;;;22.55;5.75;;;17.20;99.90;;;;;;5050637;28;20387;-84
2023/10/09 10:43:23;;;;;;;23.00;6.30;;;17.20;99.90;;;;;;5016834;28;20061;-84
2023/10/09 10:45:48;;;;;;;18.08;5.20;;;17.30;99.90;;;;;;5029480;28;20399;-84
2023/10/09 10:48:37;;;;;;;26.02;7.55;;;17.30;99.90;;;;;;5034369;28;20029;-85
2023/10/09 10:51:04;;;;;;;23.63;6.65;;;17.30;99.90;;;;;;5031508;28;20035;-84
2023/10/09 10:53:47;;;;;;;23.45;8.70;;;17.40;99.90;;;;;;5017630;28;20079;-84
2023/10/09 11:01:50;;;;;;;20.02;6.18;;;17.60;99.90;;;;;;5042525;28;20021;-84
2023/10/09 11:12:42;;;;;;;22.35;5.85;;;18.10;99.90;;;;;;5041672;28;20021;-84
2023/10/09 11:18:07;;;;;;;17.95;7.18;;;18.40;99.90;;;;;;5033721;28;20504;-83
2023/10/09 11:20:39;;;;;;;21.60;7.18;;;18.70;99.90;;;;;;5017113;28;20025;-84
2023/10/09 11:25:41;;;;;;;23.42;6.65;;;19.10;99.90;;;;;;5033544;28;20124;-84
2023/10/09 11:31:11;;;;;;;18.30;5.50;;;19.20;99.90;;;;;;5033223;28;20076;-84
2023/10/09 11:33:43;;;;;;;21.45;5.65;;;19.30;99.90;;;;;;5026562;28;20079;-84
2023/10/09 11:36:09;;;;;;;20.77;5.85;;;19.10;99.90;;;;;;5016908;28;20036;-84
2023/10/09 11:38:39;;;;;;;18.90;5.97;;;19.00;99.90;;;;;;5016855;28;20029;-84
2023/10/09 11:41:19;;;;;;;16.50;5.38;;;19.00;99.90;;;;;;5033665;28;20025;-84
2023/10/09 11:43:58;;;;;;;27.53;6.10;;;19.30;99.90;;;;;;5033576;28;20117;-83
2023/10/09 11:46:38;;;;;;;15.23;5.07;;;19.70;99.90;;;;;;5015311;28;20500;-83
2023/10/09 11:49:44;;;;;;;12.80;5.40;;;20.00;99.90;;;;;;5026172;28;20095;-84
2023/10/09 11:54:40;;;;;;;15.35;5.25;;;20.10;99.90;;;;;;5041413;28;20033;-84
2023/10/09 11:57:05;;;;;;;15.98;5.15;;;20.40;99.90;;;;;;5024311;28;20057;-84
2023/10/09 11:59:38;;;;;;;20.48;5.32;;;20.90;99.90;;;;;;5035508;28;20057;-84
2023/10/09 12:02:05;;;;;;;19.63;6.03;;;20.90;99.90;;;;;;5021992;28;20358;-84
2023/10/09 12:04:31;;;;;;;34.25;9.63;;;20.90;99.90;;;;;;5026121;28;20657;-84
2023/10/09 12:07:10;;;;;;;26.60;7.60;;;21.10;99.90;;;;;;5015192;28;20049;-84
2023/10/09 12:09:39;;;;;;;19.30;6.68;;;21.20;99.90;;;;;;5036027;28;20475;-84
2023/10/09 12:12:18;;;;;;;30.33;8.40;;;21.40;99.90;;;;;;5024572;28;20504;-84
2023/10/09 12:14:44;;;;;;;22.70;6.95;;;21.80;99.90;;;;;;5025203;28;20022;-84
2023/10/09 12:17:10;;;;;;;27.85;6.32;;;21.70;99.90;;;;;;5015398;28;20040;-85
2023/10/09 12:19:37;;;;;;;23.20;6.60;;;21.40;99.90;;;;;;5032515;28;20021;-85
2023/10/09 12:22:05;;;;;;;27.88;10.48;;;20.80;99.90;;;;;;5029118;28;20060;-84
2023/10/09 12:24:32;;;;;;;17.65;6.57;;;20.30;99.90;;;;;;5048168;28;20041;-84
2023/10/09 12:26:59;;;;;;;20.33;6.65;;;19.90;99.90;;;;;;5013564;28;20033;-84
2023/10/09 12:29:29;;;;;;;22.55;6.07;;;19.80;99.90;;;;;;5015667;28;20042;-84
2023/10/09 12:31:59;;;;;;;23.42;6.13;;;20.00;99.90;;;;;;5028705;28;20049;-84
2023/10/09 12:34:28;;;;;;;22.25;7.82;;;20.20;99.90;;;;;;5043038;28;20034;-84
2023/10/09 12:36:55;;;;;;;17.45;6.47;;;20.20;99.90;;;;;;5033364;28;20025;-84
2023/10/09 12:39:21;;;;;;;17.55;5.65;;;20.30;99.90;;;;;;5040521;28;20514;-84
2023/10/09 12:41:48;;;;;;;20.50;6.53;;;20.40;99.90;;;;;;5011434;28;20491;-83
2023/10/09 12:44:14;;;;;;;19.10;6.35;;;20.60;99.90;;;;;;5021966;28;20499;-84
2023/10/09 12:46:51;;;;;;;24.23;6.43;;;20.60;99.90;;;;;;5024770;28;20435;-84
2023/10/09 12:49:26;;;;;;;23.05;6.38;;;20.50;99.90;;;;;;5042948;28;20029;-84
2023/10/09 12:51:53;;;;;;;24.00;7.05;;;20.60;99.90;;;;;;5023535;28;20029;-84
2023/10/09 12:54:27;;;;;;;17.38;6.10;;;20.90;99.90;;;;;;5014453;28;20041;-85
2023/10/09 12:56:54;;;;;;;17.85;6.20;;;21.20;99.90;;;;;;5028363;28;20452;-84
2023/10/09 12:59:20;;;;;;;18.60;5.65;;;21.60;99.90;;;;;;5025375;28;20028;-84
2023/10/09 13:01:51;;;;;;;29.77;6.80;;;21.70;99.90;;;;;;5029364;28;20053;-84
2023/10/09 13:04:17;;;;;;;;;;;21.50;99.90;;;;;;5038136;28;20037;-84
2023/10/09 13:06:44;;;;;;;22.95;6.68;;;21.70;99.90;;;;;;5036449;28;19968;-84
2023/10/09 13:09:11;;;;;;;25.48;6.93;;;21.50;99.90;;;;;;5041119;28;20116;-84
2023/10/09 13:11:37;;;;;;;16.10;5.60;;;21.10;99.90;;;;;;5044290;28;20029;-85
2023/10/09 13:14:11;;;;;;;17.55;6.82;;;21.10;99.90;;;;;;5015094;28;20087;-83
2023/10/09 13:16:37;;;;;;;23.40;6.13;;;20.80;99.90;;;;;;5042343;28;20029;-84
2023/10/09 13:19:09;;;;;;;18.60;6.32;;;20.90;99.90;;;;;;5010973;28;20144;-85
2023/10/09 13:21:39;;;;;;;19.90;5.85;;;20.90;99.90;;;;;;5026428;28;20485;-84
2023/10/09 13:24:13;;;;;;;22.45;6.55;;;20.80;99.90;;;;;;5030088;28;20041;-83
2023/10/09 13:26:45;;;;;;;18.98;6.18;;;20.90;99.90;;;;;;5014052;28;20075;-84
2023/10/09 13:29:11;;;;;;;23.08;5.85;;;21.00;99.90;;;;;;5027771;28;20033;-84
2023/10/09 13:31:39;;;;;;;21.45;6.30;;;21.00;99.90;;;;;;5020904;28;20061;-84
2023/10/09 13:34:06;;;;;;;17.90;6.78;;;21.20;99.90;;;;;;5030783;28;20029;-84
2023/10/09 13:36:36;;;;;;;18.92;5.57;;;21.10;99.90;;;;;;5013537;28;20026;-85
2023/10/09 13:39:23;;;;;;;15.73;6.78;;;20.90;99.90;;;;;;5014354;28;20128;-84
2023/10/09 13:41:59;;;;;;;22.50;6.40;;;20.80;99.90;;;;;;5023605;28;20053;-84
2023/10/09 13:44:32;;;;;;;16.00;6.45;;;20.80;99.90;;;;;;5036965;28;20084;-84
2023/10/09 13:47:05;;;;;;;22.75;5.97;;;20.70;99.90;;;;;;5043698;28;20021;-85
2023/10/09 13:49:32;;;;;;;18.55;6.10;;;20.60;99.90;;;;;;5029435;28;20026;-84
2023/10/09 13:52:26;;;;;;;16.55;6.28;;;20.60;99.90;;;;;;5024605;28;20030;-84
2023/10/09 13:54:53;;;;;;;25.58;6.45;;;20.70;99.90;;;;;;5032008;28;20030;-84
2023/10/09 13:57:22;;;;;;;16.25;5.65;;;20.80;99.90;;;;;;5029299;28;20753;-84
2023/10/09 13:59:50;;;;;;;28.65;6.30;;;20.90;99.90;;;;;;5015882;28;20673;-84
2023/10/09 14:02:17;;;;;;;19.98;6.00;;;21.00;99.90;;;;;;5023562;28;20029;-84
2023/10/09 14:04:43;;;;;;;17.10;5.68;;;20.90;99.90;;;;;;5030537;28;20435;-84
2023/10/09 14:07:09;;;;;;;12.27;5.57;;;20.90;99.90;;;;;;5029511;28;20029;-84
2023/10/09 14:09:39;;;;;;;24.10;6.22;;;20.90;99.90;;;;;;5041845;28;20120;-84
2023/10/09 14:12:14;;;;;;;19.00;6.57;;;21.00;99.90;;;;;;5034768;28;20038;-84
2023/10/09 14:14:47;;;;;;;24.13;6.65;;;21.00;99.90;;;;;;5034792;28;20436;-84
2023/10/09 14:17:14;;;;;;;17.98;7.05;;;20.90;99.90;;;;;;5035333;28;20049;-84
2023/10/09 14:19:50;;;;;;;24.60;6.35;;;20.80;99.90;;;;;;5034647;28;20500;-84
2023/10/09 14:22:26;;;;;;;22.80;5.93;;;20.70;99.90;;;;;;5034127;28;20076;-84
2023/10/09 14:24:56;;;;;;;20.35;6.25;;;20.70;99.90;;;;;;5034846;28;20487;-84
2023/10/09 14:27:26;;;;;;;23.40;5.75;;;20.50;99.90;;;;;;5036986;28;20476;-84
2023/10/09 14:29:58;;;;;;;34.00;6.63;;;20.50;99.90;;;;;;5035769;28;20440;-84
2023/10/09 14:32:34;;;;;;;19.83;6.57;;;20.40;99.90;;;;;;5035328;28;20104;-84
2023/10/09 14:35:02;;;;;;;16.75;5.93;;;20.30;99.90;;;;;;5035134;28;20127;-84
2023/10/09 14:37:28;;;;;;;26.65;6.68;;;20.20;99.90;;;;;;5034770;28;20087;-84
2023/10/09 14:39:56;;;;;;;31.88;6.70;;;20.10;99.90;;;;;;5035326;28;20037;-84
2023/10/09 14:42:24;;;;;;;14.40;5.93;;;20.10;99.90;;;;;;5035954;28;20029;-84
2023/10/09 14:44:50;;;;;;;20.95;5.82;;;20.10;99.90;;;;;;5037087;28;20061;-85
2023/10/09 14:47:18;;;;;;;24.70;6.05;;;20.10;99.90;;;;;;5035731;28;20087;-85
2023/10/09 14:49:47;;;;;;;17.67;6.20;;;20.10;99.90;;;;;;5018627;28;20079;-84
2023/10/09 14:52:17;;;;;;;19.65;6.03;;;20.10;99.90;;;;;;5035284;28;20036;-84
2023/10/09 14:54:46;;;;;;;25.70;7.55;;;20.10;99.90;;;;;;5037279;28;20120;-85
2023/10/09 14:57:13;;;;;;;22.73;6.70;;;20.10;99.90;;;;;;5034972;28;20600;-84
2023/10/09 14:59:39;;;;;;;21.55;5.60;;;20.10;99.90;;;;;;5038745;28;20052;-84
2023/10/09 15:02:05;;;;;;;20.63;7.30;;;20.20;99.90;;;;;;5034304;28;20041;-84
2023/10/09 15:04:35;;;;;;;15.05;5.75;;;20.10;99.90;;;;;;5034653;28;20060;-85
2023/10/09 15:07:01;;;;;;;15.27;6.32;;;20.20;99.90;;;;;;5034377;28;20073;-84
2023/10/09 15:09:31;;;;;;;21.75;6.43;;;20.10;99.90;;;;;;5035566;28;20049;-84
2023/10/09 15:11:57;;;;;;;19.90;6.00;;;20.00;99.90;;;;;;5017564;28;20040;-84
2023/10/09 15:14:23;;;;;;;22.98;6.43;;;19.90;99.90;;;;;;5037271;28;20132;-84
2023/10/09 15:16:50;;;;;;;21.45;5.88;;;20.00;99.90;;;;;;5037883;28;20794;-84
2023/10/09 15:19:16;;;;;;;17.55;6.10;;;19.90;99.90;;;;;;5040064;28;20044;-85
2023/10/09 15:21:44;;;;;;;23.48;6.75;;;19.80;99.90;;;;;;5037931;28;20033;-85
2023/10/09 15:24:15;;;;;;;25.15;7.00;;;19.80;99.90;;;;;;5025980;28;20044;-84
2023/10/09 15:26:53;;;;;;;;;;;19.60;99.90;;;;;;5037393;28;20040;-84
2023/10/09 15:29:23;;;;;;;24.13;6.00;;;19.60;99.90;;;;;;5034911;28;19916;-84
2023/10/09 15:32:26;;;;;;;18.52;5.75;;;19.60;99.90;;;;;;5018554;28;20362;-85
2023/10/09 15:34:57;;;;;;;27.48;6.97;;;19.50;99.90;;;;;;5069158;28;20018;-86
2023/10/09 15:37:26;;;;;;;17.73;6.00;;;19.40;99.90;;;;;;5039166;28;20030;-86
2023/10/09 15:39:52;;;;;;;32.30;6.72;;;19.30;99.90;;;;;;5034361;28;20069;-87
2023/10/09 15:42:18;;;;;;;14.00;5.43;;;19.20;99.90;;;;;;5033746;28;20081;-85
2023/10/09 15:44:47;;;;;;;22.75;5.97;;;19.20;99.90;;;;;;5033564;28;20033;-85
2023/10/09 15:47:15;;;;;;;27.40;6.85;;;19.10;99.90;;;;;;5034025;28;20103;-84
2023/10/09 15:49:43;;;;;;;25.90;5.97;;;19.10;99.90;;;;;;5033691;28;20029;-85
2023/10/09 15:52:27;;;;;;;28.83;5.68;;;19.10;99.90;;;;;;5033769;28;20107;-85
2023/10/09 15:54:54;;;;;;;25.55;6.60;;;19.10;99.90;;;;;;5035323;28;20033;-86